Time;durP1;ratioP1;P1;durP2;ratioP2;P2;SDS_P1;SDS_P2;PMS_P1;PMS_P2;Temp;Humidity;BMP_temperature;BMP_pressure;BME280_temperature;BME280_humidity;BME280_pressure;Samples;Min_cycle;Max_cycle;Signal;HPM_P1;HPM_P2
2021/03/18 00:00:15;;;;;;;10.77;6.85;;;;;;;1.84;100.00;96795.69;8356368;28;20059;-52
2021/03/18 00:04:19;;;;;;;10.02;6.82;;;;;;;1.74;100.00;96797.94;8351023;28;20053;-55
2021/03/18 00:08:22;;;;;;;9.23;7.30;;;;;;;1.57;100.00;96787.59;8349193;28;20041;-55
2021/03/18 00:12:24;;;;;;;10.65;7.30;;;;;;;1.61;100.00;96789.94;8363099;28;20047;-55
2021/03/18 00:16:28;;;;;;;8.93;7.28;;;;;;;1.58;100.00;96795.34;8377003;28;20514;-56
2021/03/18 00:20:31;;;;;;;9.02;6.85;;;;;;;1.65;100.00;96782.84;8354356;28;20040;-57
2021/03/18 00:24:33;;;;;;;9.50;7.47;;;;;;;1.67;100.00;96788.81;8350703;28;20032;-55
2021/03/18 00:28:37;;;;;;;9.23;6.70;;;;;;;1.64;100.00;96783.75;8355628;28;20040;-57
2021/03/18 00:32:40;;;;;;;9.40;7.32;;;;;;;1.54;100.00;96788.59;8364618;28;20043;-54
2021/03/18 00:36:43;;;;;;;9.45;7.28;;;;;;;1.38;100.00;96783.41;8345872;28;20040;-55
2021/03/18 00:40:48;;;;;;;8.50;7.47;;;;;;;1.32;100.00;96788.06;8347599;28;20047;-52
2021/03/18 00:44:51;;;;;;;9.35;7.20;;;;;;;1.27;100.00;96795.25;8347604;28;20342;-57
2021/03/18 00:48:54;;;;;;;8.60;7.00;;;;;;;1.27;100.00;96792.66;8355342;28;20422;-53
2021/03/18 00:52:57;;;;;;;9.70;7.28;;;;;;;1.38;100.00;96795.56;8384507;28;20045;-57
2021/03/18 00:57:00;;;;;;;8.07;6.65;;;;;;;1.38;100.00;96783.41;8354457;28;20495;-54
2021/03/18 01:01:04;;;;;;;11.25;7.68;;;;;;;1.38;100.00;96777.38;8353116;28;20112;-58
2021/03/18 01:05:12;;;;;;;10.10;7.47;;;;;;;1.37;100.00;96775.66;8346659;28;20052;-55
2021/03/18 01:09:15;;;;;;;11.10;7.07;;;;;;;1.36;100.00;96781.78;8383162;28;20037;-56
2021/03/18 01:13:19;;;;;;;11.80;7.70;;;;;;;1.42;100.00;96776.28;8328211;28;20437;-57
2021/03/18 01:17:21;;;;;;;9.52;7.70;;;;;;;1.37;100.00;96775.66;8343898;28;20041;-56
2021/03/18 01:21:27;;;;;;;12.13;7.97;;;;;;;1.37;100.00;96775.66;8344691;28;20040;-58
2021/03/18 01:25:29;;;;;;;11.77;7.60;;;;;;;1.36;100.00;96774.00;8355995;28;26132;-57
2021/03/18 01:29:32;;;;;;;8.43;7.22;;;;;;;1.33;100.00;96759.41;8388198;28;20390;-55
2021/03/18 01:33:35;;;;;;;10.85;7.95;;;;;;;1.32;100.00;96770.72;8361602;28;20660;-53
2021/03/18 01:37:39;;;;;;;12.63;8.20;;;;;;;1.43;100.00;96765.78;8352630;28;20037;-54
2021/03/18 01:41:41;;;;;;;12.95;8.13;;;;;;;1.37;100.00;96754.88;8356886;28;20036;-59
2021/03/18 01:45:44;;;;;;;14.48;8.65;;;;;;;1.13;100.00;96760.44;8391060;28;20047;-55
2021/03/18 01:49:46;;;;;;;12.77;8.65;;;;;;;1.04;100.00;96760.91;8353867;28;20060;-57
2021/03/18 01:53:50;;;;;;;12.25;7.85;;;;;;;0.92;100.00;96756.34;8356560;28;20367;-54
2021/03/18 01:57:53;;;;;;;15.00;9.35;;;;;;;0.88;100.00;96757.44;8339802;28;20040;-55
2021/03/18 02:01:55;;;;;;;12.95;8.82;;;;;;;0.91;100.00;96752.06;8354664;28;20887;-57
2021/03/18 02:05:58;;;;;;;12.75;9.05;;;;;;;0.87;100.00;96751.41;8367675;28;20033;-56
2021/03/18 02:10:02;;;;;;;17.13;9.40;;;;;;;0.87;100.00;96743.59;8348361;28;20041;-56
2021/03/18 02:14:04;;;;;;;14.18;8.80;;;;;;;0.74;100.00;96741.72;8350115;28;20044;-57
2021/03/18 02:18:10;;;;;;;15.50;9.85;;;;;;;0.75;100.00;96741.63;8356511;28;20486;-56
2021/03/18 02:22:37;;;;;;;16.10;10.18;;;;;;;0.61;100.00;96744.91;8386834;28;20044;-51
2021/03/18 02:27:11;;;;;;;18.52;10.07;;;;;;;0.64;100.00;96754.31;8383768;28;20029;-57
2021/03/18 02:31:18;;;;;;;17.58;10.63;;;;;;;0.54;100.00;96745.31;8359050;28;20064;-56
2021/03/18 02:35:26;;;;;;;20.35;11.80;;;;;;;0.51;100.00;96755.81;8352682;28;20041;-54
2021/03/18 02:39:33;;;;;;;17.75;10.13;;;;;;;0.58;100.00;96768.41;8349342;28;20040;-52
2021/03/18 02:43:39;;;;;;;20.27;11.07;;;;;;;0.77;100.00;96763.16;8355414;28;20516;-57
2021/03/18 02:47:43;;;;;;;16.25;10.27;;;;;;;0.79;100.00;96769.13;8378394;28;20044;-58
2021/03/18 02:51:46;;;;;;;17.75;10.75;;;;;;;0.85;100.00;96763.59;8338153;28;20041;-56
2021/03/18 02:55:50;;;;;;;21.60;11.30;;;;;;;0.95;100.00;96762.22;8358298;28;20040;-56
2021/03/18 02:59:54;;;;;;;17.45;10.77;;;;;;;0.85;100.00;96761.00;8354320;28;20052;-58
2021/03/18 03:03:58;;;;;;;21.45;11.95;;;;;;;0.97;100.00;96758.72;8385563;28;20044;-57
2021/03/18 03:08:05;;;;;;;19.85;11.90;;;;;;;0.94;100.00;96762.31;8360051;28;20033;-57
2021/03/18 03:12:09;;;;;;;20.33;11.55;;;;;;;0.86;100.00;96764.44;8342557;28;20047;-57
2021/03/18 03:16:14;;;;;;;21.98;12.13;;;;;;;0.90;100.00;96766.81;8356396;28;20094;-57
2021/03/18 03:20:20;;;;;;;24.20;12.10;;;;;;;0.93;100.00;96768.44;8355444;28;20047;-56
2021/03/18 03:24:24;;;;;;;20.75;12.13;;;;;;;0.92;100.00;96774.53;8378396;28;20036;-55
2021/03/18 03:28:27;;;;;;;21.02;12.85;;;;;;;0.94;100.00;96776.13;8352173;28;20040;-58
2021/03/18 03:32:30;;;;;;;22.13;12.50;;;;;;;0.95;100.00;96783.00;8355106;28;20037;-55
2021/03/18 03:36:34;;;;;;;21.73;12.68;;;;;;;1.04;100.00;96784.28;8350488;28;20143;-57
2021/03/18 03:40:37;;;;;;;22.00;12.88;;;;;;;1.06;100.00;96789.41;8329932;28;20040;-58
2021/03/18 03:44:40;;;;;;;22.08;12.77;;;;;;;1.16;100.00;96793.19;8384737;28;20032;-58
2021/03/18 03:48:43;;;;;;;19.38;12.25;;;;;;;1.12;100.00;96792.53;8325892;28;20036;-57
2021/03/18 03:52:53;;;;;;;23.45;12.52;;;;;;;1.21;100.00;96795.59;8356442;28;20049;-57
2021/03/18 03:57:00;;;;;;;23.30;12.73;;;;;;;1.20;100.00;96792.13;8353101;28;20044;-58
2021/03/18 04:01:09;;;;;;;21.60;13.05;;;;;;;1.27;100.00;96795.25;8381946;28;20496;-57
2021/03/18 04:05:14;;;;;;;22.42;12.90;;;;;;;1.27;100.00;96790.03;8349287;28;20040;-56
2021/03/18 04:09:18;;;;;;;20.50;13.07;;;;;;;1.16;100.00;96799.22;8352104;28;20048;-57
2021/03/18 04:13:22;;;;;;;21.13;12.85;;;;;;;1.16;100.00;96799.22;8347499;28;20052;-57
2021/03/18 04:17:26;;;;;;;24.33;12.63;;;;;;;1.15;100.00;96801.94;8352441;28;20045;-56
2021/03/18 04:21:32;;;;;;;23.23;13.30;;;;;;;1.10;100.00;96794.38;8382292;28;20048;-55
2021/03/18 04:25:35;;;;;;;24.25;13.07;;;;;;;1.14;100.00;96802.84;8351293;28;20040;-56
2021/03/18 04:29:39;;;;;;;24.35;13.10;;;;;;;1.03;100.00;96808.56;8333845;28;20033;-57
2021/03/18 04:33:42;;;;;;;22.58;13.27;;;;;;;1.05;100.00;96809.34;8350953;28;20036;-57
2021/03/18 04:37:45;;;;;;;23.45;12.88;;;;;;;1.05;100.00;96809.34;8344824;28;20371;-55
2021/03/18 04:41:47;;;;;;;22.65;14.25;;;;;;;1.13;100.00;96807.19;8373797;28;20044;-57
2021/03/18 04:45:52;;;;;;;22.38;13.48;;;;;;;1.26;100.00;96804.81;8348431;28;20402;-58
2021/03/18 04:49:54;;;;;;;24.73;14.50;;;;;;;1.21;100.00;96811.16;8353467;28;20048;-56
2021/03/18 04:53:58;;;;;;;25.30;13.85;;;;;;;1.22;100.00;96802.44;8338433;28;20036;-57
2021/03/18 04:58:03;;;;;;;22.55;13.45;;;;;;;1.38;100.00;96813.75;8390769;28;20059;-55
2021/03/18 05:02:09;;;;;;;24.63;13.75;;;;;;;1.37;100.00;96810.28;8353752;28;20437;-53
2021/03/18 05:06:12;;;;;;;27.50;14.65;;;;;;;1.38;100.00;96804.19;8356583;28;20395;-55
2021/03/18 05:10:17;;;;;;;22.35;13.73;;;;;;;1.26;100.00;96796.16;8351600;28;20045;-58
2021/03/18 05:14:21;;;;;;;25.80;14.35;;;;;;;1.32;100.00;96801.88;8345918;28;20044;-57
2021/03/18 05:18:25;;;;;;;23.73;13.98;;;;;;;1.17;100.00;96803.53;8389612;28;20040;-60
2021/03/18 05:22:28;;;;;;;25.13;14.50;;;;;;;1.27;100.00;96806.47;8346099;28;20402;-56
2021/03/18 05:26:34;;;;;;;24.30;13.82;;;;;;;1.32;100.00;96806.25;8339968;28;20032;-56
2021/03/18 05:30:37;;;;;;;26.98;14.93;;;;;;;1.29;100.00;96814.19;8359922;28;20039;-57
2021/03/18 05:34:40;;;;;;;24.90;14.70;;;;;;;1.29;100.00;96814.19;8388407;28;20044;-60
2021/03/18 05:38:43;;;;;;;24.58;14.85;;;;;;;1.32;100.00;96814.03;8351212;28;20033;-57
2021/03/18 05:42:47;;;;;;;25.20;14.50;;;;;;;1.25;100.00;96821.31;8350502;28;20033;-59
2021/03/18 05:46:50;;;;;;;26.60;15.43;;;;;;;1.23;100.00;96820.53;8355174;28;20032;-56
2021/03/18 05:50:54;;;;;;;21.77;13.18;;;;;;;1.35;100.00;96813.91;8355535;28;23744;-58
2021/03/18 05:54:57;;;;;;;25.90;15.65;;;;;;;1.36;100.00;96810.38;8388511;28;20056;-56
2021/03/18 05:59:01;;;;;;;23.30;14.18;;;;;;;1.30;100.00;96808.06;8359830;28;20032;-58
2021/03/18 06:03:03;;;;;;;24.27;14.63;;;;;;;1.44;100.00;96813.41;8339996;28;20048;-56
2021/03/18 06:07:08;;;;;;;30.42;17.10;;;;;;;1.38;100.00;96811.97;8358129;28;20043;-55
2021/03/18 06:11:11;;;;;;;26.05;15.82;;;;;;;1.47;100.00;96817.59;8365191;28;20044;-55
2021/03/18 06:15:15;;;;;;;27.58;15.43;;;;;;;1.42;100.00;96821.28;8349341;28;20040;-57
2021/03/18 06:19:18;;;;;;;28.55;15.95;;;;;;;1.47;100.00;96822.78;8353406;28;20044;-59
2021/03/18 06:23:22;;;;;;;27.75;15.27;;;;;;;1.38;100.00;96813.75;8350601;28;20033;-55
2021/03/18 06:27:24;;;;;;;28.52;16.60;;;;;;;1.47;100.00;96818.44;8357956;28;20458;-55
2021/03/18 06:31:29;;;;;;;29.27;15.57;;;;;;;1.82;100.00;96820.94;8387562;28;20052;-57
2021/03/18 06:35:31;;;;;;;24.17;15.02;;;;;;;2.06;100.00;96819.59;8352639;28;20040;-58
2021/03/18 06:39:35;;;;;;;25.55;16.10;;;;;;;2.14;100.00;96829.63;8352483;28;20531;-59
2021/03/18 06:43:40;;;;;;;30.02;15.55;;;;;;;2.05;100.00;96820.53;8352589;28;20041;-57
2021/03/18 06:47:44;;;;;;;27.25;15.55;;;;;;;2.44;100.00;96818.41;8359840;28;24808;-54
2021/03/18 06:52:01;;;;;;;27.83;15.85;;;;;;;2.74;100.00;96814.06;8389336;28;20051;-54
2021/03/18 06:56:25;;;;;;;27.35;15.50;;;;;;;3.06;100.00;96807.03;8355382;28;20040;-56
2021/03/18 07:00:35;;;;;;;22.95;14.32;;;;;;;2.68;100.00;96817.03;8357407;28;20333;-56
2021/03/18 07:04:38;;;;;;;;;;;;;;;2.46;100.00;96822.63;8352247;28;20059;-54
2021/03/18 07:08:41;;;;;;;27.55;14.90;;;;;;;2.26;100.00;96821.13;8350150;28;19920;-53
2021/03/18 07:12:44;;;;;;;24.25;15.10;;;;;;;2.18;100.00;96819.88;8390473;28;20040;-55
2021/03/18 07:16:48;;;;;;;24.40;14.55;;;;;;;2.27;100.00;96828.03;8353473;28;20053;-53
2021/03/18 07:21:00;;;;;;;23.40;14.57;;;;;;;2.70;100.00;96815.19;8360054;28;20431;-49
2021/03/18 07:25:02;;;;;;;;;;;;;;;2.76;100.00;96811.41;8348583;28;20051;-57
2021/03/18 07:29:17;;;;;;;23.58;14.00;;;;;;;2.61;100.00;96813.97;8385142;28;20299;-53
2021/03/18 07:33:20;;;;;;;23.10;13.95;;;;;;;2.92;100.00;96809.56;8373692;28;20040;-52
2021/03/18 07:37:23;;;;;;;24.75;14.48;;;;;;;2.88;100.00;96815.06;8355094;28;20537;-57
2021/03/18 07:41:26;;;;;;;19.50;11.32;;;;;;;2.59;100.00;96814.97;8348121;28;20053;-56
2021/03/18 07:45:31;;;;;;;25.20;13.80;;;;;;;2.82;100.00;96811.03;8348531;28;20033;-52
2021/03/18 07:49:38;;;;;;;22.80;14.02;;;;;;;3.06;100.00;96806.16;8385681;28;20036;-56
2021/03/18 07:53:44;;;;;;;24.95;14.02;;;;;;;3.53;100.00;96802.50;8353106;28;20040;-51
2021/03/18 07:57:49;;;;;;;27.33;14.32;;;;;;;3.86;100.00;96794.41;8355228;28;20051;-56
2021/03/18 08:01:53;;;;;;;24.85;14.32;;;;;;;4.04;100.00;96801.06;8353659;28;20040;-53
2021/03/18 08:05:57;;;;;;;23.65;14.32;;;;;;;4.62;100.00;96800.91;8343404;28;20044;-55
2021/03/18 08:10:00;;;;;;;28.33;15.48;;;;;;;4.85;100.00;96804.63;8380588;28;20047;-50
2021/03/18 08:14:06;;;;;;;21.95;14.45;;;;;;;4.86;100.00;96796.69;8348124;28;20048;-54
2021/03/18 08:18:32;;;;;;;25.00;15.18;;;;;;;4.98;100.00;96787.19;8344654;28;20460;-58
2021/03/18 08:22:34;;;;;;;21.77;13.35;;;;;;;5.53;100.00;96799.16;8342085;28;20048;-51
2021/03/18 08:26:48;;;;;;;23.30;14.20;;;;;;;6.01;100.00;96790.66;8356320;28;20060;-56
2021/03/18 08:30:55;;;;;;;23.65;14.05;;;;;;;5.80;100.00;96777.25;8391096;28;20517;-59
2021/03/18 08:34:59;;;;;;;21.08;13.63;;;;;;;5.67;100.00;96785.13;8364748;28;20056;-58
2021/03/18 08:39:08;;;;;;;22.38;15.07;;;;;;;5.47;100.00;96789.97;8358913;28;20047;-53
2021/03/18 08:43:10;;;;;;;24.50;15.30;;;;;;;5.52;100.00;96781.78;8355307;28;20051;-57
2021/03/18 08:47:13;;;;;;;21.65;14.07;;;;;;;5.38;100.00;96781.91;8389671;28;20040;-55
2021/03/18 08:51:39;;;;;;;19.98;13.35;;;;;;;4.76;100.00;96786.00;8359572;28;20045;-56
2021/03/18 08:55:44;;;;;;;18.85;12.00;;;;;;;5.17;100.00;96786.81;8363344;28;20051;-59
2021/03/18 08:59:48;;;;;;;22.23;13.40;;;;;;;5.04;100.00;96788.56;8361914;28;20462;-55
2021/03/18 09:03:58;;;;;;;21.10;13.73;;;;;;;4.93;100.00;96779.66;8357641;28;20037;-53
2021/03/18 09:08:04;;;;;;;19.08;12.10;;;;;;;4.73;100.00;96788.81;8393474;28;20384;-58
2021/03/18 09:12:08;;;;;;;23.88;14.32;;;;;;;5.26;100.00;96777.50;8373809;28;20443;-57
2021/03/18 09:16:20;;;;;;;20.90;13.35;;;;;;;4.85;100.00;96778.47;8358517;28;20077;-59
2021/03/18 09:20:27;;;;;;;21.52;14.10;;;;;;;5.14;100.00;96773.94;8357428;28;20040;-59
2021/03/18 09:24:37;;;;;;;24.67;14.00;;;;;;;4.52;100.00;96770.16;8345838;28;20499;-58
2021/03/18 09:28:41;;;;;;;21.65;12.63;;;;;;;4.81;100.00;96767.41;8389708;28;20036;-59
2021/03/18 09:32:43;;;;;;;16.45;10.57;;;;;;;5.19;100.00;96769.22;8358925;28;20775;-58
2021/03/18 09:36:47;;;;;;;22.02;13.73;;;;;;;4.62;100.00;96761.72;8356613;28;20048;-55
2021/03/18 09:40:51;;;;;;;20.55;12.95;;;;;;;4.81;100.00;96763.94;8336914;28;20040;-57
2021/03/18 09:44:54;;;;;;;18.08;11.95;;;;;;;5.38;100.00;96759.19;8350531;28;20427;-58
2021/03/18 09:48:57;;;;;;;18.50;12.32;;;;;;;5.69;100.00;96751.84;8389266;28;20032;-56
2021/03/18 09:53:10;;;;;;;12.43;9.13;;;;;;;5.79;100.00;96752.88;8338233;28;20041;-58
2021/03/18 09:57:14;;;;;;;12.75;9.40;;;;;;;5.83;100.00;96743.84;8355351;28;20040;-56
2021/03/18 10:01:18;;;;;;;15.18;10.15;;;;;;;5.97;100.00;96742.91;8357085;28;20040;-57
2021/03/18 10:05:22;;;;;;;15.98;10.70;;;;;;;6.04;100.00;96735.47;8360903;28;20048;-58
2021/03/18 10:09:26;;;;;;;14.93;9.65;;;;;;;6.10;100.00;96728.00;8378535;28;20036;-54
2021/03/18 10:13:30;;;;;;;13.73;9.57;;;;;;;6.11;100.00;96723.59;8353163;28;20043;-55
2021/03/18 10:17:35;;;;;;;14.25;10.18;;;;;;;6.45;100.00;96718.53;8352644;28;20044;-59
2021/03/18 10:21:38;;;;;;;12.63;7.38;;;;;;;6.38;99.23;96716.34;8358729;28;20534;-54
2021/03/18 10:25:41;;;;;;;15.45;10.52;;;;;;;6.70;100.00;96709.69;8380472;28;20048;-59
2021/03/18 10:29:45;;;;;;;15.48;9.55;;;;;;;6.72;99.01;96708.63;8358311;28;20402;-52
2021/03/18 10:33:47;;;;;;;14.02;9.75;;;;;;;6.35;100.00;96713.97;8353224;28;20047;-57
2021/03/18 10:37:49;;;;;;;14.85;9.80;;;;;;;6.81;96.10;96707.09;8353812;28;20044;-58
2021/03/18 10:41:54;;;;;;;15.65;10.48;;;;;;;7.32;82.90;96699.66;8350000;28;20044;-56
2021/03/18 10:46:03;;;;;;;11.20;8.10;;;;;;;6.73;79.81;96691.94;8386348;28;20033;-51
2021/03/18 10:50:11;;;;;;;12.18;8.60;;;;;;;6.55;83.19;96695.94;8347311;28;20032;-58
2021/03/18 10:54:18;;;;;;;13.25;8.38;;;;;;;6.12;92.37;96692.06;8352775;28;21445;-58
2021/03/18 10:58:23;;;;;;;13.63;8.60;;;;;;;6.01;91.32;96686.78;8355982;28;20041;-53
2021/03/18 11:02:28;;;;;;;12.77;9.23;;;;;;;6.64;86.04;96680.38;8383200;28;20223;-52
2021/03/18 11:06:31;;;;;;;11.27;8.23;;;;;;;6.60;82.85;96676.28;8355931;28;20529;-57
2021/03/18 11:10:36;;;;;;;11.82;8.80;;;;;;;6.29;88.38;96669.03;8347672;28;20037;-56
2021/03/18 11:14:55;;;;;;;10.35;7.13;;;;;;;6.52;82.52;96669.97;8351881;28;20474;-59
2021/03/18 11:19:00;;;;;;;11.40;7.65;;;;;;;6.44;86.67;96662.69;8354226;28;20033;-58
2021/03/18 11:23:03;;;;;;;9.15;5.93;;;;;;;6.20;100.00;96654.88;8377585;28;20091;-57
2021/03/18 11:27:06;;;;;;;9.20;6.75;;;;;;;5.44;100.00;96661.19;8352903;28;20041;-53
2021/03/18 11:31:15;;;;;;;8.93;6.68;;;;;;;6.07;100.00;96659.31;8358291;28;20044;-53
2021/03/18 11:35:19;;;;;;;11.18;8.00;;;;;;;6.13;100.00;96656.25;8357160;28;20048;-60
2021/03/18 11:39:22;;;;;;;10.07;7.75;;;;;;;6.29;100.00;96653.34;8349739;28;20048;-56
2021/03/18 11:43:25;;;;;;;9.70;7.38;;;;;;;6.14;100.00;96647.44;8383994;28;20547;-59
2021/03/18 11:47:27;;;;;;;10.27;8.02;;;;;;;6.33;100.00;96644.28;8340751;28;20048;-52
2021/03/18 11:51:31;;;;;;;12.70;7.68;;;;;;;6.22;97.47;96644.25;8348857;28;20048;-53
2021/03/18 11:55:34;;;;;;;10.43;7.85;;;;;;;6.50;86.75;96637.81;8354202;28;20376;-54
2021/03/18 11:59:36;;;;;;;13.20;8.77;;;;;;;7.11;86.07;96625.25;8384040;28;20037;-58
2021/03/18 12:03:39;;;;;;;12.00;8.80;;;;;;;7.34;87.54;96620.84;8353058;28;20040;-56
2021/03/18 12:07:43;;;;;;;9.40;7.20;;;;;;;7.21;79.73;96620.97;8352141;28;20059;-57
2021/03/18 12:11:45;;;;;;;10.98;7.97;;;;;;;6.60;100.00;96630.91;8347163;28;20044;-56
2021/03/18 12:15:48;;;;;;;8.75;6.55;;;;;;;4.73;100.00;96649.53;8354047;28;20993;-59
2021/03/18 12:19:51;;;;;;;8.60;6.60;;;;;;;4.99;100.00;96637.31;8385790;28;20115;-55
2021/03/18 12:23:54;;;;;;;6.40;5.57;;;;;;;4.87;100.00;96635.53;8343854;28;20036;-59
2021/03/18 12:27:57;;;;;;;7.63;5.97;;;;;;;5.47;99.04;96629.56;8349089;28;20055;-58
2021/03/18 12:32:00;;;;;;;7.93;6.05;;;;;;;5.42;91.97;96624.66;8355718;28;20051;-58
2021/03/18 12:36:03;;;;;;;8.70;6.28;;;;;;;5.60;100.00;96616.44;8379368;28;20037;-52
2021/03/18 12:40:09;;;;;;;8.00;6.13;;;;;;;5.26;100.00;96615.38;8353062;28;20041;-56
2021/03/18 12:44:12;;;;;;;9.20;6.50;;;;;;;5.33;100.00;96604.38;8347738;28;20044;-57
2021/03/18 12:48:14;;;;;;;8.13;5.82;;;;;;;5.29;93.10;96592.47;8346557;28;20545;-59
2021/03/18 12:52:17;;;;;;;8.10;6.80;;;;;;;5.82;100.00;96586.97;8354067;28;20462;-59
2021/03/18 12:56:20;;;;;;;7.85;5.93;;;;;;;5.57;100.00;96578.25;8384255;28;20043;-55
2021/03/18 13:00:26;;;;;;;7.93;6.15;;;;;;;5.41;90.92;96580.31;8353454;28;20564;-57
2021/03/18 13:04:28;;;;;;;11.45;7.55;;;;;;;6.13;91.02;96578.53;8352850;28;20056;-57
2021/03/18 13:08:31;;;;;;;7.13;6.35;;;;;;;6.45;91.49;96577.06;8354974;28;20051;-56
2021/03/18 13:12:36;;;;;;;7.88;6.70;;;;;;;6.47;87.98;96564.69;8372639;28;20040;-58
2021/03/18 13:16:39;;;;;;;9.38;7.03;;;;;;;5.88;93.96;96561.19;8381009;28;20048;-59
2021/03/18 13:20:42;;;;;;;9.73;6.32;;;;;;;5.72;100.00;96569.31;8354489;28;20060;-58
2021/03/18 13:24:45;;;;;;;8.27;6.35;;;;;;;5.07;100.00;96569.66;8350928;28;20040;-53
2021/03/18 13:28:49;;;;;;;7.03;5.82;;;;;;;5.34;100.00;96566.03;8361217;28;20090;-59
2021/03/18 13:32:52;;;;;;;8.90;6.30;;;;;;;5.56;100.00;96563.50;8384725;28;20041;-56
2021/03/18 13:37:10;;;;;;;7.45;6.57;;;;;;;6.10;100.00;96544.75;8363533;28;20392;-57
2021/03/18 13:41:15;;;;;;;8.82;6.68;;;;;;;5.53;100.00;96534.97;8350840;28;20040;-56
2021/03/18 13:45:18;;;;;;;9.10;6.78;;;;;;;6.56;100.00;96535.16;8354239;28;20527;-56
2021/03/18 13:49:21;;;;;;;8.00;5.32;;;;;;;7.41;100.00;96518.88;8361800;28;25093;-57
2021/03/18 13:53:23;;;;;;;6.03;4.88;;;;;;;7.36;100.00;96520.09;8391130;28;20040;-59
2021/03/18 13:57:26;;;;;;;5.85;4.38;;;;;;;5.92;100.00;96525.16;8364858;28;20040;-57
2021/03/18 14:01:30;;;;;;;5.35;4.65;;;;;;;6.08;100.00;96527.47;8358774;28;20044;-53
2021/03/18 14:05:34;;;;;;;7.95;6.10;;;;;;;6.52;100.00;96516.22;8350285;28;20036;-59
2021/03/18 14:09:36;;;;;;;5.60;4.30;;;;;;;6.61;100.00;96498.97;8388387;28;20385;-59
2021/03/18 14:13:39;;;;;;;7.47;5.65;;;;;;;6.78;100.00;96497.63;8354537;28;20165;-60
2021/03/18 14:17:43;;;;;;;6.90;4.22;;;;;;;7.42;100.00;96507.44;8348640;28;20414;-60
2021/03/18 14:21:47;;;;;;;5.68;4.45;;;;;;;7.46;100.00;96508.84;8358152;28;20032;-58
2021/03/18 14:25:50;;;;;;;8.00;5.38;;;;;;;8.21;100.00;96506.13;8349908;28;20052;-58
2021/03/18 14:29:54;;;;;;;5.22;4.20;;;;;;;8.61;100.00;96526.44;8385514;28;20037;-59
2021/03/18 14:33:57;;;;;;;4.97;3.83;;;;;;;7.41;100.00;96514.47;8353118;28;20040;-58
2021/03/18 14:38:01;;;;;;;4.82;3.85;;;;;;;6.38;100.00;96521.69;8350375;28;20032;-58
2021/03/18 14:42:04;;;;;;;6.13;3.85;;;;;;;6.38;100.00;96514.69;8350995;28;20051;-56
2021/03/18 14:46:06;;;;;;;5.47;3.92;;;;;;;5.99;95.10;96513.31;8386552;28;20041;-59
2021/03/18 14:50:12;;;;;;;4.80;4.18;;;;;;;5.89;98.12;96502.66;8353312;28;20036;-57
2021/03/18 14:54:16;;;;;;;8.00;4.68;;;;;;;5.80;97.95;96490.25;8356481;28;20037;-58
2021/03/18 14:58:21;;;;;;;7.07;5.20;;;;;;;5.79;100.00;96493.81;8355033;28;20044;-58
2021/03/18 15:02:24;;;;;;;7.85;5.05;;;;;;;5.82;100.00;96480.50;8358160;28;20045;-57
2021/03/18 15:06:28;;;;;;;5.93;5.13;;;;;;;5.82;98.67;96480.50;8376789;28;20036;-55
2021/03/18 15:10:30;;;;;;;6.00;5.10;;;;;;;5.63;100.00;96477.59;8347161;28;20039;-57
2021/03/18 15:14:33;;;;;;;7.47;5.60;;;;;;;5.65;100.00;96465.22;8345699;28;20418;-57
2021/03/18 15:18:36;;;;;;;6.90;5.35;;;;;;;5.77;100.00;96463.47;8350526;28;20427;-58
2021/03/18 15:22:39;;;;;;;8.55;6.35;;;;;;;5.59;100.00;96465.69;8360318;28;20044;-57
2021/03/18 15:26:42;;;;;;;6.13;5.20;;;;;;;5.11;100.00;96463.94;8374016;28;20052;-54
2021/03/18 15:30:45;;;;;;;4.85;4.35;;;;;;;3.46;100.00;96488.38;8355592;28;20037;-57
2021/03/18 15:34:50;;;;;;;10.70;5.05;;;;;;;2.30;100.00;96507.78;8355483;28;20530;-56
2021/03/18 15:38:54;;;;;;;7.80;4.90;;;;;;;1.93;100.00;96510.91;8345674;28;20045;-48
2021/03/18 15:42:57;;;;;;;8.27;6.10;;;;;;;2.45;100.00;96500.00;8383285;28;20078;-49
2021/03/18 15:46:59;;;;;;;7.35;5.63;;;;;;;2.23;100.00;96482.22;8351084;28;20044;-50
2021/03/18 15:51:02;;;;;;;11.25;8.63;;;;;;;2.58;100.00;96470.50;8350952;28;20138;-51
2021/03/18 15:55:07;;;;;;;8.25;5.72;;;;;;;2.73;100.00;96466.09;8352999;28;20047;-51
2021/03/18 15:59:10;;;;;;;10.27;6.18;;;;;;;3.18;100.00;96452.84;8357703;28;20040;-53
2021/03/18 16:03:13;;;;;;;15.43;10.60;;;;;;;3.04;100.00;96451.13;8383861;28;20037;-50
2021/03/18 16:07:16;;;;;;;16.48;9.65;;;;;;;3.08;100.00;96448.22;8352768;28;20059;-51
2021/03/18 16:11:20;;;;;;;9.85;7.30;;;;;;;3.13;100.00;96439.28;8351817;28;20037;-51
2021/03/18 16:15:23;;;;;;;13.80;9.63;;;;;;;3.50;100.00;96446.34;8350503;28;20051;-50
2021/03/18 16:19:25;;;;;;;11.60;7.57;;;;;;;3.05;100.00;96438.00;8385415;28;20045;-50
2021/03/18 16:23:28;;;;;;;9.98;7.10;;;;;;;3.13;100.00;96442.69;8343955;28;20072;-55
2021/03/18 16:27:31;;;;;;;9.25;7.00;;;;;;;2.83;100.00;96454.16;8351067;28;20044;-52
2021/03/18 16:31:34;;;;;;;8.88;7.22;;;;;;;2.68;100.00;96456.91;8345584;28;20028;-52
2021/03/18 16:35:38;;;;;;;11.23;9.48;;;;;;;2.75;100.00;96456.44;8343193;28;20037;-52
2021/03/18 16:39:41;;;;;;;18.35;11.55;;;;;;;2.48;100.00;96458.13;8379043;28;20056;-48
2021/03/18 16:43:44;;;;;;;27.52;17.45;;;;;;;2.56;100.00;96459.34;8343957;28;20434;-50
2021/03/18 16:47:47;;;;;;;8.77;7.45;;;;;;;2.59;100.00;96455.72;8349507;28;20055;-52
2021/03/18 16:51:50;;;;;;;9.15;7.75;;;;;;;2.51;100.00;96453.59;8353548;28;20045;-48
2021/03/18 16:55:55;;;;;;;16.88;11.57;;;;;;;2.66;100.00;96456.19;8390829;28;20036;-49
2021/03/18 16:59:58;;;;;;;17.48;11.15;;;;;;;2.82;100.00;96456.84;8358662;28;20041;-55
2021/03/18 17:04:01;;;;;;;11.35;9.45;;;;;;;2.66;100.00;96457.00;8360989;28;20040;-54
2021/03/18 17:08:04;;;;;;;12.07;8.60;;;;;;;2.78;100.00;96460.59;8355177;28;20047;-58
2021/03/18 17:12:07;;;;;;;18.08;12.27;;;;;;;2.38;100.00;96463.94;8348141;28;21401;-58
2021/03/18 17:16:11;;;;;;;16.33;11.27;;;;;;;2.33;100.00;96460.75;8389966;28;20044;-57
2021/03/18 17:20:17;;;;;;;13.85;10.32;;;;;;;2.41;100.00;96460.31;8348881;28;20063;-57
2021/03/18 17:24:19;;;;;;;12.50;9.00;;;;;;;2.18;100.00;96459.09;8350268;28;20048;-58
2021/03/18 17:28:22;;;;;;;10.52;7.80;;;;;;;2.12;100.00;96452.50;8359572;28;20055;-56
2021/03/18 17:32:26;;;;;;;13.05;10.77;;;;;;;2.32;100.00;96447.84;8384433;28;20403;-58
2021/03/18 17:36:29;;;;;;;9.48;8.15;;;;;;;2.30;100.00;96437.53;8350999;28;20457;-58
2021/03/18 17:40:33;;;;;;;12.10;9.23;;;;;;;2.51;100.00;96442.31;8358302;28;20040;-58
2021/03/18 17:44:37;;;;;;;10.52;7.72;;;;;;;2.33;100.00;96457.31;8347193;28;20044;-58
2021/03/18 17:48:40;;;;;;;9.35;7.10;;;;;;;2.32;100.00;96450.44;8362163;28;20055;-58
2021/03/18 17:52:43;;;;;;;13.98;9.18;;;;;;;2.00;100.00;96440.25;8386613;28;20410;-55
2021/03/18 17:56:46;;;;;;;12.63;8.60;;;;;;;1.94;100.00;96452.78;8357863;28;20124;-56
2021/03/18 18:00:49;;;;;;;13.18;8.05;;;;;;;1.83;100.00;96445.63;8355875;28;20052;-54
2021/03/18 18:04:54;;;;;;;9.85;7.88;;;;;;;1.76;100.00;96436.53;8354326;28;20044;-56
2021/03/18 18:08:56;;;;;;;11.00;8.20;;;;;;;1.74;100.00;96438.38;8381634;28;20392;-53
2021/03/18 18:13:00;;;;;;;11.00;7.38;;;;;;;1.70;100.00;96440.31;8345210;28;20070;-53
2021/03/18 18:17:03;;;;;;;10.98;8.02;;;;;;;1.68;100.00;96431.75;8349001;28;20518;-55
2021/03/18 18:21:07;;;;;;;9.38;7.80;;;;;;;1.62;100.00;96442.53;8353511;28;20052;-55
2021/03/18 18:25:11;;;;;;;10.85;7.47;;;;;;;1.53;100.00;96443.91;8341522;28;20409;-56
2021/03/18 18:29:14;;;;;;;10.85;7.70;;;;;;;1.56;100.00;96437.69;8375986;28;20102;-52
2021/03/18 18:33:16;;;;;;;10.60;7.50;;;;;;;1.52;100.00;96429.25;8358134;28;20055;-48
2021/03/18 18:37:20;;;;;;;10.88;7.47;;;;;;;1.45;100.00;96430.53;8358398;28;20036;-52
2021/03/18 18:41:24;;;;;;;10.20;7.82;;;;;;;1.38;100.00;96426.63;8351533;28;20036;-51
2021/03/18 18:45:28;;;;;;;9.00;7.55;;;;;;;1.38;100.00;96418.81;8380968;28;20049;-52
2021/03/18 18:49:31;;;;;;;10.15;7.30;;;;;;;1.30;100.00;96411.44;8374386;28;20041;-50
2021/03/18 18:53:34;;;;;;;10.23;8.07;;;;;;;1.23;100.00;96417.09;8349556;28;20430;-51